Time;durP1;ratioP1;P1;durP2;ratioP2;P2;SDS_P1;SDS_P2;PMS_P1;PMS_P2;Temp;Humidity;BMP_temperature;BMP_pressure;BME280_temperature;BME280_humidity;BME280_pressure;Samples;Min_cycle;Max_cycle;Signal;HPM_P1;HPM_P2
2022/03/30 00:01:29;;;;;;;41.67;8.40;;;10.10;49.30;;;;;;5080362;28;21124;-60
2022/03/30 00:03:55;;;;;;;45.00;8.03;;;10.10;49.50;;;;;;5077369;28;20613;-61
2022/03/30 00:06:21;;;;;;;30.60;8.07;;;10.10;49.70;;;;;;5084324;28;21354;-60
2022/03/30 00:08:47;;;;;;;32.80;8.73;;;10.10;49.60;;;;;;5095114;28;20359;-60
2022/03/30 00:11:13;;;;;;;35.30;7.90;;;10.10;49.50;;;;;;5082028;28;20963;-60
2022/03/30 00:13:40;;;;;;;46.50;9.40;;;10.10;49.60;;;;;;5080496;28;20285;-60
2022/03/30 00:16:07;;;;;;;30.73;8.90;;;10.10;49.90;;;;;;5083687;28;21198;-60
2022/03/30 00:18:33;;;;;;;31.80;9.10;;;10.10;49.40;;;;;;5085699;28;20912;-60
2022/03/30 00:20:59;;;;;;;51.03;10.03;;;10.10;49.30;;;;;;5094033;28;20431;-60
2022/03/30 00:23:25;;;;;;;41.43;9.20;;;10.10;49.20;;;;;;5090408;28;20458;-60
2022/03/30 00:25:51;;;;;;;37.70;9.83;;;10.10;49.00;;;;;;5078538;28;20459;-61
2022/03/30 00:28:17;;;;;;;40.30;9.13;;;10.10;48.90;;;;;;5083186;28;20185;-60
2022/03/30 00:30:43;;;;;;;31.23;8.83;;;10.20;48.90;;;;;;5086414;28;20544;-60
2022/03/30 00:33:08;;;;;;;37.73;9.53;;;10.10;48.80;;;;;;5077293;28;20194;-60
2022/03/30 00:35:35;;;;;;;46.47;8.90;;;10.20;49.00;;;;;;5084264;28;20436;-60
2022/03/30 00:38:00;;;;;;;29.03;9.40;;;10.10;49.50;;;;;;5087114;28;20430;-60
2022/03/30 00:40:26;;;;;;;37.47;8.40;;;10.10;49.10;;;;;;5084112;28;20439;-60
2022/03/30 00:42:52;;;;;;;50.10;9.87;;;10.10;49.10;;;;;;5085238;28;20220;-60
2022/03/30 00:45:23;;;;;;;34.70;8.90;;;10.10;49.20;;;;;;5083931;28;20185;-60
2022/03/30 00:47:49;;;;;;;40.13;8.67;;;10.10;49.70;;;;;;5078184;28;20170;-60
2022/03/30 00:50:17;;;;;;;31.17;9.67;;;10.00;49.80;;;;;;5079285;28;20459;-60
2022/03/30 00:52:45;;;;;;;46.60;8.63;;;10.00;50.00;;;;;;5082091;28;20841;-60
2022/03/30 00:55:10;;;;;;;34.00;9.07;;;10.00;50.40;;;;;;5088500;28;20928;-60
2022/03/30 00:57:37;;;;;;;53.13;8.90;;;9.90;51.20;;;;;;5090786;28;20434;-60
2022/03/30 01:00:05;;;;;;;30.60;7.77;;;9.90;51.30;;;;;;5091578;28;20186;-61
2022/03/30 01:02:32;;;;;;;35.53;8.80;;;9.90;51.20;;;;;;5082137;28;20463;-60
2022/03/30 01:04:57;;;;;;;34.80;8.50;;;9.90;51.40;;;;;;5082523;28;20485;-60
2022/03/30 01:07:25;;;;;;;38.73;9.70;;;9.90;51.70;;;;;;5082281;28;20833;-60
2022/03/30 01:09:51;;;;;;;37.10;8.13;;;9.90;51.70;;;;;;5085634;28;20596;-60
2022/03/30 01:12:17;;;;;;;38.70;8.90;;;9.90;51.90;;;;;;5085463;28;20460;-61
2022/03/30 01:14:43;;;;;;;31.47;9.00;;;9.90;51.90;;;;;;5084556;28;20184;-60
2022/03/30 01:17:08;;;;;;;36.53;7.73;;;9.90;52.00;;;;;;5078266;28;20522;-60
2022/03/30 01:19:34;;;;;;;37.63;7.83;;;9.80;52.30;;;;;;5084207;28;20232;-60
2022/03/30 01:22:00;;;;;;;57.33;10.00;;;9.80;52.60;;;;;;5084015;28;20223;-60
2022/03/30 01:24:26;;;;;;;40.37;9.90;;;9.80;53.80;;;;;;5085084;28;20201;-59
2022/03/30 01:26:52;;;;;;;38.90;10.17;;;9.80;54.20;;;;;;5090806;28;20186;-60
2022/03/30 01:34:47;;;;;;;38.70;10.70;;;9.70;55.40;;;;;;5086595;28;20982;-60
2022/03/30 01:37:14;;;;;;;43.97;10.47;;;9.60;55.50;;;;;;5076349;28;20428;-61
2022/03/30 01:39:40;;;;;;;51.20;9.53;;;9.60;55.50;;;;;;5080160;28;20251;-60
2022/03/30 01:42:07;;;;;;;42.63;10.20;;;9.60;55.20;;;;;;5086993;28;20446;-59
2022/03/30 01:44:33;;;;;;;52.03;10.80;;;9.50;55.30;;;;;;5081804;28;20448;-60
2022/03/30 01:46:59;;;;;;;33.93;9.67;;;9.50;55.40;;;;;;5089244;28;20438;-60
2022/03/30 01:49:24;;;;;;;51.00;11.20;;;9.50;55.40;;;;;;5085136;28;20467;-60
2022/03/30 01:51:52;;;;;;;53.23;9.83;;;9.60;55.60;;;;;;5080590;28;20181;-60
2022/03/30 01:54:20;;;;;;;36.00;9.40;;;9.50;55.50;;;;;;5084289;28;20192;-60
2022/03/30 01:56:47;;;;;;;40.23;9.93;;;9.60;56.00;;;;;;5086636;28;20425;-59
2022/03/30 01:59:13;;;;;;;36.83;9.73;;;9.60;57.10;;;;;;5085899;28;21095;-60
2022/03/30 02:01:40;;;;;;;43.03;9.77;;;9.60;57.50;;;;;;5073692;28;20433;-60
2022/03/30 02:04:06;;;;;;;44.60;8.90;;;9.60;57.80;;;;;;5077777;28;20967;-61
2022/03/30 02:06:33;;;;;;;33.80;9.30;;;9.50;57.90;;;;;;5074126;28;20435;-61
2022/03/30 02:08:58;;;;;;;35.30;9.67;;;9.50;58.00;;;;;;5089875;28;20201;-60
2022/03/30 02:11:26;;;;;;;38.70;9.80;;;9.50;57.30;;;;;;5081799;28;20428;-60
2022/03/30 02:13:52;;;;;;;46.87;10.50;;;9.40;56.60;;;;;;5083149;28;20256;-59
2022/03/30 02:16:19;;;;;;;39.47;10.27;;;9.40;56.50;;;;;;5086202;28;20450;-60
2022/03/30 02:18:45;;;;;;;40.77;10.20;;;9.40;56.50;;;;;;5082959;28;20831;-61
2022/03/30 02:21:11;;;;;;;35.50;10.33;;;9.30;56.50;;;;;;5074600;28;20454;-60
2022/03/30 02:23:38;;;;;;;38.70;10.63;;;9.30;56.60;;;;;;5092893;28;20955;-60
2022/03/30 02:26:03;;;;;;;48.33;10.90;;;9.30;56.50;;;;;;5078980;28;20943;-60
2022/03/30 02:28:29;;;;;;;41.73;10.83;;;9.30;56.90;;;;;;5084696;28;20455;-62
2022/03/30 02:30:55;;;;;;;43.57;10.37;;;9.30;57.00;;;;;;5073318;28;20640;-60
2022/03/30 02:33:20;;;;;;;39.67;11.70;;;9.20;57.00;;;;;;5087870;28;20194;-60
2022/03/30 02:35:46;;;;;;;45.00;12.10;;;9.20;57.40;;;;;;5077330;28;20213;-60
2022/03/30 02:38:11;;;;;;;43.43;11.70;;;9.20;57.70;;;;;;5081627;28;20201;-60
2022/03/30 02:40:37;;;;;;;51.10;10.90;;;9.20;57.40;;;;;;5078175;28;20182;-60
2022/03/30 02:43:03;;;;;;;30.70;8.53;;;9.20;57.40;;;;;;5074224;28;20271;-60
2022/03/30 02:45:29;;;;;;;33.30;8.27;;;9.30;57.00;;;;;;5068627;28;20853;-60
2022/03/30 02:50:39;;;;;;;48.43;9.97;;;9.30;57.60;;;;;;5077722;28;20404;-60
2022/03/30 02:53:04;;;;;;;50.10;9.40;;;9.30;58.60;;;;;;5077790;28;20451;-60
2022/03/30 02:55:30;;;;;;;41.73;9.73;;;9.30;58.70;;;;;;5088426;28;20192;-60
2022/03/30 02:57:56;;;;;;;54.87;11.23;;;9.30;59.10;;;;;;5081489;28;20174;-60
2022/03/30 03:00:22;;;;;;;58.60;10.80;;;9.30;60.10;;;;;;5085339;28;20681;-60
2022/03/30 03:02:47;;;;;;;33.70;10.17;;;9.20;60.00;;;;;;5078711;28;20198;-59
2022/03/30 03:05:13;;;;;;;35.60;9.87;;;9.20;60.20;;;;;;5087211;28;20778;-60
2022/03/30 03:07:39;;;;;;;45.33;10.67;;;9.20;60.10;;;;;;5078142;28;20178;-61
2022/03/30 03:10:05;;;;;;;42.03;11.53;;;9.20;59.70;;;;;;5084647;28;20205;-60
2022/03/30 03:12:31;;;;;;;33.67;9.50;;;9.20;59.30;;;;;;5082957;28;20314;-59
2022/03/30 03:14:56;;;;;;;36.10;9.33;;;9.20;58.80;;;;;;5068591;28;20512;-61
2022/03/30 03:17:22;;;;;;;42.97;9.07;;;9.20;58.20;;;;;;5075406;28;20177;-61
2022/03/30 03:19:48;;;;;;;30.10;9.70;;;9.30;57.80;;;;;;5069319;28;20175;-61
2022/03/30 03:22:13;;;;;;;42.77;9.67;;;9.30;57.30;;;;;;5088599;28;20257;-61
2022/03/30 03:24:39;;;;;;;40.07;8.47;;;9.30;57.00;;;;;;5081745;28;20666;-60
2022/03/30 03:27:04;;;;;;;39.57;9.80;;;9.30;56.60;;;;;;5076758;28;20181;-60
2022/03/30 03:29:30;;;;;;;43.47;10.00;;;9.30;56.70;;;;;;5087930;28;20200;-60
2022/03/30 03:31:56;;;;;;;35.23;10.03;;;9.30;57.50;;;;;;5082833;28;20516;-60
2022/03/30 03:34:21;;;;;;;31.30;9.07;;;9.30;58.00;;;;;;5077731;28;20732;-60
2022/03/30 03:36:47;;;;;;;53.07;12.50;;;9.30;58.50;;;;;;5085743;28;20201;-61
2022/03/30 03:39:13;;;;;;;54.50;11.40;;;9.30;59.20;;;;;;5083819;28;20554;-61
2022/03/30 03:41:38;;;;;;;44.57;10.83;;;9.20;59.60;;;;;;5083757;28;20185;-61
2022/03/30 03:44:04;;;;;;;37.20;9.67;;;9.20;60.40;;;;;;5096933;28;20201;-60
2022/03/30 03:46:30;;;;;;;40.50;11.03;;;9.20;60.80;;;;;;5079842;28;20536;-61
2022/03/30 03:48:55;;;;;;;50.23;10.30;;;9.20;61.20;;;;;;5085336;28;20543;-61
2022/03/30 03:51:22;;;;;;;41.53;9.90;;;9.10;62.20;;;;;;5085771;28;20257;-62
2022/03/30 03:53:47;;;;;;;34.30;9.73;;;9.10;63.20;;;;;;5084033;28;20186;-61
2022/03/30 03:56:13;;;;;;;36.10;11.20;;;9.10;64.30;;;;;;5083543;28;20485;-60
2022/03/30 03:58:38;;;;;;;35.10;10.30;;;9.10;65.30;;;;;;5082673;28;20192;-61
2022/03/30 04:01:04;;;;;;;53.40;11.37;;;9.00;69.50;;;;;;5082840;28;20182;-61
2022/03/30 04:03:30;;;;;;;40.83;11.77;;;9.10;72.60;;;;;;5080578;28;20236;-61
2022/03/30 04:05:56;;;;;;;42.20;10.53;;;9.00;75.20;;;;;;5077377;28;20255;-62
2022/03/30 04:08:21;;;;;;;48.30;10.60;;;9.00;78.30;;;;;;5073002;28;20681;-61
2022/03/30 04:10:48;;;;;;;45.40;10.97;;;8.90;80.20;;;;;;5081035;28;20511;-60
2022/03/30 04:13:13;;;;;;;36.37;10.83;;;8.90;86.70;;;;;;5081785;28;20324;-60
2022/03/30 04:15:39;;;;;;;44.27;10.33;;;8.80;90.60;;;;;;5080979;28;20531;-61
2022/03/30 04:18:07;;;;;;;36.30;10.90;;;8.80;91.70;;;;;;5082715;28;20822;-60
2022/03/30 04:20:33;;;;;;;32.83;11.17;;;8.80;91.10;;;;;;5077608;28;20484;-60
2022/03/30 04:23:00;;;;;;;42.67;10.67;;;8.70;90.80;;;;;;5078781;28;20452;-60
2022/03/30 04:25:26;;;;;;;40.67;10.67;;;8.70;90.00;;;;;;5076248;28;20488;-60
2022/03/30 04:27:53;;;;;;;42.43;12.23;;;8.70;90.20;;;;;;5087197;28;20441;-61
2022/03/30 04:30:20;;;;;;;36.67;10.77;;;8.60;90.40;;;;;;5081829;28;20459;-61
2022/03/30 04:32:46;;;;;;;44.27;11.03;;;8.60;90.20;;;;;;5087260;28;20819;-61
2022/03/30 04:35:18;;;;;;;34.67;11.00;;;8.50;91.60;;;;;;5088487;28;20423;-61
2022/03/30 04:37:44;;;;;;;55.20;16.43;;;8.50;94.20;;;;;;5081502;28;20187;-60
2022/03/30 04:40:10;;;;;;;41.90;15.20;;;8.50;95.10;;;;;;5088723;28;20844;-62
2022/03/30 04:42:36;;;;;;;40.80;13.90;;;8.50;94.80;;;;;;5084952;28;20460;-62
2022/03/30 04:45:01;;;;;;;43.73;12.20;;;8.40;95.60;;;;;;5082087;28;20529;-61
2022/03/30 04:47:27;;;;;;;29.03;12.50;;;8.40;96.40;;;;;;5078194;28;20560;-60
2022/03/30 04:49:53;;;;;;;39.93;12.30;;;8.40;97.40;;;;;;5084466;28;20201;-60
2022/03/30 04:52:19;;;;;;;35.97;13.50;;;8.40;97.40;;;;;;5087894;28;20178;-61
2022/03/30 04:54:44;;;;;;;41.93;13.83;;;8.40;97.90;;;;;;5092199;28;20174;-61
2022/03/30 04:57:10;;;;;;;36.30;11.90;;;8.30;98.20;;;;;;5090533;28;20312;-61
2022/03/30 04:59:36;;;;;;;50.93;13.30;;;8.40;97.20;;;;;;5085004;28;20174;-56
2022/03/30 05:02:01;;;;;;;40.77;12.60;;;8.30;99.90;;;;;;5086787;28;20181;-60
2022/03/30 05:04:29;;;;;;;44.70;13.47;;;8.30;99.90;;;;;;5089405;28;20235;-60
2022/03/30 05:06:55;;;;;;;37.13;13.10;;;8.30;99.90;;;;;;5071360;28;20171;-60
2022/03/30 05:09:21;;;;;;;38.10;12.80;;;8.30;99.90;;;;;;5078147;28;20461;-60
2022/03/30 05:11:46;;;;;;;50.77;13.67;;;8.30;99.90;;;;;;5090447;28;20539;-61
2022/03/30 05:14:12;;;;;;;36.37;14.23;;;8.30;99.90;;;;;;5090024;28;20200;-60
2022/03/30 05:16:37;;;;;;;48.40;14.00;;;8.40;99.90;;;;;;5070379;28;20186;-61
2022/03/30 05:19:03;;;;;;;45.10;15.00;;;8.30;99.90;;;;;;5084057;28;20262;-60
2022/03/30 05:21:29;;;;;;;40.27;12.13;;;8.30;99.90;;;;;;5082436;28;20182;-60
2022/03/30 05:23:55;;;;;;;41.20;11.70;;;8.30;99.90;;;;;;5082382;28;20275;-59
2022/03/30 05:26:21;;;;;;;42.63;12.00;;;8.30;99.90;;;;;;5074157;28;20520;-60
2022/03/30 05:28:46;;;;;;;57.77;11.60;;;8.30;99.90;;;;;;5070860;28;20202;-61
2022/03/30 05:31:12;;;;;;;48.20;12.07;;;8.30;99.90;;;;;;5078236;28;20193;-60
2022/03/30 05:33:37;;;;;;;43.13;11.23;;;8.30;99.90;;;;;;5084778;28;20205;-60
2022/03/30 05:36:04;;;;;;;31.50;11.73;;;8.30;99.90;;;;;;5068272;28;20174;-61
2022/03/30 05:38:30;;;;;;;42.30;11.90;;;8.30;99.90;;;;;;5085944;28;20265;-60
2022/03/30 05:40:55;;;;;;;48.20;12.13;;;8.30;99.90;;;;;;5090269;28;20633;-60
2022/03/30 05:43:21;;;;;;;37.83;11.77;;;8.30;99.90;;;;;;5074001;28;20260;-61
2022/03/30 05:45:47;;;;;;;42.00;10.67;;;8.20;99.90;;;;;;5070746;28;20261;-60
2022/03/30 05:48:13;;;;;;;34.67;12.00;;;8.10;99.90;;;;;;5079045;28;20457;-61
2022/03/30 05:50:39;;;;;;;41.07;11.37;;;8.10;99.90;;;;;;5073923;28;20490;-59
2022/03/30 05:53:06;;;;;;;52.37;13.50;;;8.00;99.90;;;;;;5074876;28;20463;-61
2022/03/30 05:55:32;;;;;;;48.63;13.20;;;8.00;99.90;;;;;;5076283;28;20216;-60
2022/03/30 05:57:58;;;;;;;46.10;13.00;;;8.00;99.90;;;;;;5075450;28;20917;-60
2022/03/30 06:00:23;;;;;;;50.57;14.63;;;8.00;99.90;;;;;;5088823;28;20715;-61
2022/03/30 06:02:49;;;;;;;42.27;14.90;;;8.00;99.90;;;;;;5077324;28;20229;-60
2022/03/30 06:05:15;;;;;;;35.30;14.70;;;8.00;99.90;;;;;;5075171;28;20212;-61
2022/03/30 06:07:41;;;;;;;49.23;13.43;;;8.00;99.90;;;;;;5076217;28;20555;-61
2022/03/30 06:10:07;;;;;;;34.93;12.33;;;8.10;99.90;;;;;;5079047;28;20456;-60
2022/03/30 06:12:33;;;;;;;37.43;13.57;;;8.10;99.90;;;;;;5089123;28;20185;-60
2022/03/30 06:14:59;;;;;;;39.23;12.40;;;8.10;99.90;;;;;;5074385;28;20428;-61
2022/03/30 06:17:25;;;;;;;39.00;13.13;;;8.10;99.90;;;;;;5074859;28;20171;-60
2022/03/30 06:19:52;;;;;;;45.03;12.27;;;8.10;99.90;;;;;;5080765;28;20198;-60
2022/03/30 06:22:19;;;;;;;36.20;12.27;;;8.20;99.90;;;;;;5077117;28;20904;-61
2022/03/30 06:24:45;;;;;;;38.63;12.67;;;8.20;99.90;;;;;;5078889;28;20470;-60
2022/03/30 06:27:12;;;;;;;37.93;10.70;;;8.20;99.90;;;;;;5075541;28;20443;-60
2022/03/30 06:29:39;;;;;;;45.33;11.77;;;8.20;99.90;;;;;;5104578;27;20451;-61
2022/03/30 06:32:06;;;;;;;33.50;13.17;;;8.30;99.90;;;;;;5083621;28;20800;-61
2022/03/30 06:34:31;;;;;;;41.67;12.33;;;8.30;99.90;;;;;;5084203;28;20474;-60
2022/03/30 06:36:57;;;;;;;45.70;13.47;;;8.30;99.90;;;;;;5077798;28;20492;-61
2022/03/30 06:39:23;;;;;;;36.17;11.53;;;8.30;99.90;;;;;;5076486;28;20269;-60
2022/03/30 06:41:49;;;;;;;33.30;11.50;;;8.30;99.90;;;;;;5070845;28;20679;-60
2022/03/30 06:44:16;;;;;;;43.97;12.00;;;8.30;99.90;;;;;;5090017;28;20469;-60
2022/03/30 06:46:43;;;;;;;34.20;11.33;;;8.30;99.90;;;;;;5105249;28;20638;-61
2022/03/30 06:49:11;;;;;;;42.90;12.53;;;8.40;99.90;;;;;;5084166;28;20448;-61
2022/03/30 06:51:37;;;;;;;42.47;11.57;;;8.40;99.90;;;;;;5082081;28;20518;-60
2022/03/30 06:54:04;;;;;;;45.40;12.37;;;8.40;99.90;;;;;;5080332;28;20967;-61
2022/03/30 06:56:29;;;;;;;46.57;12.40;;;8.40;99.90;;;;;;5085165;28;20461;-59
2022/03/30 06:58:55;;;;;;;40.90;11.90;;;8.30;99.90;;;;;;5096010;28;20420;-60
2022/03/30 07:01:21;;;;;;;58.23;13.03;;;8.30;99.90;;;;;;5074266;28;20696;-61
2022/03/30 07:03:46;;;;;;;44.07;12.60;;;8.30;99.90;;;;;;5081832;28;20264;-61
2022/03/30 07:06:12;;;;;;;44.60;12.10;;;8.30;99.90;;;;;;5090261;28;20269;-61
2022/03/30 07:11:22;;;;;;;30.67;11.27;;;8.30;99.90;;;;;;5083709;28;20825;-61
2022/03/30 07:13:49;;;;;;;33.37;11.83;;;8.40;99.90;;;;;;5081033;28;20433;-61
2022/03/30 07:16:14;;;;;;;39.10;12.60;;;8.30;99.90;;;;;;5083872;28;20548;-60
2022/03/30 07:18:40;;;;;;;43.57;12.73;;;8.30;99.90;;;;;;5085563;28;20419;-61
2022/03/30 07:21:06;;;;;;;39.03;13.40;;;8.40;99.90;;;;;;5071356;28;20302;-60
2022/03/30 07:23:31;;;;;;;37.70;11.50;;;8.40;99.90;;;;;;5084687;28;20209;-61
2022/03/30 07:26:00;;;;;;;31.03;12.20;;;8.40;99.90;;;;;;5081987;28;20205;-60
2022/03/30 07:28:26;;;;;;;33.20;12.40;;;8.40;99.90;;;;;;5084438;28;20569;-59
2022/03/30 07:30:53;;;;;;;40.23;11.63;;;8.50;99.90;;;;;;5077273;28;20428;-59
2022/03/30 07:33:20;;;;;;;31.57;12.37;;;8.50;99.90;;;;;;5076202;28;20471;-59
2022/03/30 07:35:46;;;;;;;45.70;13.40;;;8.50;99.90;;;;;;5086151;28;20480;-60
2022/03/30 07:38:14;;;;;;;33.30;10.90;;;8.60;99.90;;;;;;5086246;28;20432;-60
2022/03/30 07:40:40;;;;;;;44.87;12.07;;;8.60;99.90;;;;;;5079096;28;20169;-58
2022/03/30 07:43:07;;;;;;;26.87;9.80;;;8.60;99.90;;;;;;5075314;28;20495;-60
2022/03/30 07:45:34;;;;;;;29.90;9.30;;;8.70;99.90;;;;;;5080354;28;20435;-59
2022/03/30 07:48:00;;;;;;;38.43;10.87;;;8.70;99.90;;;;;;5089004;28;20424;-60
2022/03/30 07:50:26;;;;;;;59.23;12.10;;;8.70;99.90;;;;;;5077455;28;20551;-59
2022/03/30 07:52:52;;;;;;;30.73;11.77;;;8.80;99.90;;;;;;5068836;28;20520;-59
2022/03/30 07:55:18;;;;;;;31.10;10.00;;;8.80;99.90;;;;;;5079290;28;21007;-59
2022/03/30 07:57:44;;;;;;;36.80;10.60;;;8.80;99.90;;;;;;5083355;28;20669;-58
2022/03/30 08:00:16;;;;;;;32.23;10.10;;;8.90;99.90;;;;;;5081177;28;20218;-59
2022/03/30 08:02:42;;;;;;;37.33;11.90;;;8.90;99.90;;;;;;5087887;28;21025;-60
2022/03/30 08:05:10;;;;;;;32.27;10.20;;;8.90;99.90;;;;;;5080790;28;20488;-58
2022/03/30 08:07:37;;;;;;;41.07;10.27;;;9.00;99.90;;;;;;5080159;28;20424;-59
2022/03/30 08:10:03;;;;;;;40.40;10.20;;;9.00;99.90;;;;;;5093244;28;20991;-58
2022/03/30 08:12:29;;;;;;;23.63;9.30;;;9.00;99.90;;;;;;5090252;28;20457;-60
2022/03/30 08:14:55;;;;;;;34.03;9.90;;;9.10;99.90;;;;;;5074849;28;20531;-59
2022/03/30 08:17:21;;;;;;;26.10;9.60;;;9.10;99.90;;;;;;5089532;28;20170;-59
2022/03/30 08:19:47;;;;;;;27.40;11.07;;;9.10;99.90;;;;;;5091723;28;20439;-59
2022/03/30 08:22:28;;;;;;;30.60;10.60;;;9.20;99.90;;;;;;5091842;28;20185;-60
2022/03/30 08:25:00;;;;;;;39.00;9.63;;;9.20;99.90;;;;;;5085666;28;20178;-59
2022/03/30 08:27:29;;;;;;;24.83;9.00;;;9.20;99.90;;;;;;5084196;28;20494;-59
2022/03/30 08:29:56;;;;;;;27.67;9.07;;;9.20;99.90;;;;;;5088996;28;20459;-61
2022/03/30 08:32:23;;;;;;;42.20;9.97;;;9.20;99.90;;;;;;5089091;28;20420;-60
2022/03/30 08:34:50;;;;;;;34.27;9.60;;;9.20;99.90;;;;;;5085950;28;20518;-60
2022/03/30 08:37:16;;;;;;;47.70;10.37;;;9.20;99.90;;;;;;5092366;28;20415;-59
2022/03/30 08:39:42;;;;;;;19.43;8.10;;;9.10;99.90;;;;;;5084671;28;20757;-60
2022/03/30 08:42:09;;;;;;;41.37;8.67;;;9.10;99.90;;;;;;5080298;28;20174;-59
2022/03/30 08:44:36;;;;;;;41.90;10.80;;;9.10;99.90;;;;;;5071938;28;20174;-59
2022/03/30 08:47:02;;;;;;;35.00;8.20;;;9.20;99.90;;;;;;5088301;28;20420;-60
2022/03/30 08:49:33;;;;;;;35.33;9.33;;;9.20;99.90;;;;;;5090383;28;20460;-59
2022/03/30 08:52:00;;;;;;;21.93;7.57;;;9.20;99.90;;;;;;5081156;28;20420;-60
2022/03/30 08:54:27;;;;;;;27.60;6.93;;;9.20;99.90;;;;;;5082388;28;20498;-59
2022/03/30 08:56:52;;;;;;;26.23;6.90;;;9.20;99.90;;;;;;5075552;28;20420;-59
2022/03/30 08:59:20;;;;;;;16.87;7.00;;;9.20;99.90;;;;;;5072420;28;20458;-61
2022/03/30 09:01:47;;;;;;;19.53;7.10;;;9.20;99.90;;;;;;5087905;28;20170;-59
2022/03/30 09:04:14;;;;;;;39.60;7.70;;;9.20;99.90;;;;;;5091211;28;20506;-59
2022/03/30 09:06:41;;;;;;;21.23;6.77;;;9.20;99.90;;;;;;5090448;28;20481;-60
2022/03/30 09:09:08;;;;;;;21.43;6.07;;;9.20;99.90;;;;;;5084921;28;20465;-60
2022/03/30 09:11:45;;;;;;;12.97;5.77;;;9.20;99.90;;;;;;5087186;28;20480;-59
2022/03/30 09:14:12;;;;;;;17.07;6.27;;;9.20;99.90;;;;;;5074329;28;20432;-60
2022/03/30 09:16:46;;;;;;;12.70;4.73;;;9.20;99.90;;;;;;5068809;28;21016;-59
2022/03/30 09:19:17;;;;;;;15.57;5.67;;;9.20;99.90;;;;;;5082050;28;20424;-60
2022/03/30 09:21:44;;;;;;;12.13;6.20;;;9.30;99.90;;;;;;5078489;28;20430;-60
2022/03/30 09:24:11;;;;;;;20.10;5.63;;;9.30;99.90;;;;;;5078500;28;20448;-61
2022/03/30 09:26:37;;;;;;;11.93;5.57;;;9.30;99.90;;;;;;5091709;28;20469;-60
2022/03/30 09:29:04;;;;;;;18.73;5.53;;;9.30;99.90;;;;;;5094133;28;20458;-61
2022/03/30 09:31:31;;;;;;;11.87;5.40;;;9.20;99.90;;;;;;5086781;28;20835;-59
2022/03/30 09:34:01;;;;;;;7.37;4.53;;;9.20;99.90;;;;;;5076827;28;20439;-59
2022/03/30 09:36:29;;;;;;;11.97;4.73;;;9.20;99.90;;;;;;5086601;28;20865;-59
2022/03/30 09:38:55;;;;;;;11.47;5.60;;;9.20;99.90;;;;;;5089476;28;20808;-59
2022/03/30 09:41:21;;;;;;;14.83;4.50;;;9.20;99.90;;;;;;5085918;28;20436;-60
2022/03/30 09:43:47;;;;;;;9.07;4.90;;;9.10;99.90;;;;;;5070469;28;20208;-59
2022/03/30 09:46:15;;;;;;;8.77;4.47;;;9.10;99.90;;;;;;5071029;28;20166;-59
2022/03/30 09:48:49;;;;;;;16.27;5.47;;;9.20;99.90;;;;;;5078579;28;20524;-59
2022/03/30 09:51:16;;;;;;;8.60;4.93;;;9.20;99.90;;;;;;5086659;28;20419;-60
2022/03/30 09:53:43;;;;;;;14.23;4.77;;;9.30;99.90;;;;;;5086166;28;20439;-60
2022/03/30 09:56:14;;;;;;;11.03;5.00;;;9.30;99.90;;;;;;5078994;28;20413;-59
2022/03/30 09:58:41;;;;;;;10.93;5.50;;;9.40;99.90;;;;;;5077213;28;20408;-59
2022/03/30 10:01:09;;;;;;;10.80;4.87;;;9.40;99.90;;;;;;5080146;28;20434;-59
2022/03/30 10:03:46;;;;;;;16.00;5.23;;;9.50;99.90;;;;;;5077989;28;20521;-59
2022/03/30 10:06:15;;;;;;;12.10;4.83;;;9.50;99.90;;;;;;5087769;28;20436;-59
2022/03/30 10:08:46;;;;;;;13.03;5.73;;;9.60;99.90;;;;;;5082947;28;20475;-60
2022/03/30 10:11:15;;;;;;;14.60;5.83;;;9.60;99.90;;;;;;5084942;28;20435;-60
2022/03/30 10:13:41;;;;;;;12.30;5.50;;;9.70;99.90;;;;;;5087288;28;20514;-59
2022/03/30 10:16:08;;;;;;;12.07;5.23;;;9.80;99.90;;;;;;5082235;28;20459;-59
2022/03/30 10:18:34;;;;;;;8.80;5.37;;;9.70;99.90;;;;;;5080386;28;20905;-59
2022/03/30 10:21:23;;;;;;;11.07;5.50;;;9.80;99.90;;;;;;5081302;28;20428;-60
2022/03/30 10:24:45;;;;;;;10.50;5.37;;;9.80;99.90;;;;;;5072179;28;20487;-60
2022/03/30 10:27:18;;;;;;;16.20;5.47;;;9.70;99.90;;;;;;5047360;28;20906;-60
2022/03/30 10:29:52;;;;;;;10.60;5.20;;;9.70;99.90;;;;;;5094156;27;20464;-59
2022/03/30 10:32:27;;;;;;;12.07;5.33;;;9.70;99.90;;;;;;5072513;28;20512;-60
2022/03/30 10:35:02;;;;;;;13.40;6.20;;;9.70;99.90;;;;;;5079532;28;20427;-60
2022/03/30 10:37:38;;;;;;;12.80;5.37;;;9.80;99.90;;;;;;5104571;28;20476;-60
2022/03/30 10:40:04;;;;;;;13.40;6.37;;;9.80;99.90;;;;;;5078922;28;21208;-60
2022/03/30 10:42:53;;;;;;;18.10;6.00;;;9.80;99.90;;;;;;5083963;28;20478;-60
2022/03/30 10:45:28;;;;;;;11.80;6.50;;;9.90;99.90;;;;;;5035851;28;20620;-61
2022/03/30 10:48:28;;;;;;;11.40;6.40;;;9.90;99.90;;;;;;5047891;28;20958;-62
2022/03/30 10:50:56;;;;;;;14.77;6.90;;;9.90;99.90;;;;;;5042266;28;20973;-61
2022/03/30 10:53:31;;;;;;;18.23;7.47;;;9.90;99.90;;;;;;5032893;28;21030;-61
2022/03/30 10:56:15;;;;;;;17.47;6.57;;;9.90;99.90;;;;;;5043969;28;21001;-61
2022/03/30 10:58:49;;;;;;;10.40;6.20;;;9.80;99.90;;;;;;5027284;28;20434;-63
2022/03/30 11:01:25;;;;;;;23.80;7.80;;;9.70;99.90;;;;;;5031414;28;20437;-62
2022/03/30 11:04:19;;;;;;;14.33;6.70;;;9.80;99.90;;;;;;5033371;28;20946;-62
2022/03/30 11:07:24;;;;;;;16.30;7.00;;;9.70;99.90;;;;;;5034052;28;20859;-62
2022/03/30 11:10:17;;;;;;;19.47;7.10;;;9.70;99.90;;;;;;5037769;28;20440;-62
2022/03/30 11:13:12;;;;;;;15.03;7.63;;;9.70;99.90;;;;;;5037841;28;20446;-62
2022/03/30 11:15:57;;;;;;;18.47;7.70;;;9.70;99.90;;;;;;5038279;28;20454;-62
2022/03/30 11:18:24;;;;;;;18.40;8.70;;;9.70;99.90;;;;;;5026869;28;20438;-62
2022/03/30 11:21:08;;;;;;;22.63;8.27;;;9.70;99.90;;;;;;5030794;28;20841;-61
2022/03/30 11:23:38;;;;;;;20.03;8.17;;;9.60;99.90;;;;;;5028507;28;20453;-63
2022/03/30 11:26:03;;;;;;;12.70;7.73;;;9.60;99.90;;;;;;5029671;28;20783;-62
2022/03/30 11:28:37;;;;;;;24.57;8.87;;;9.60;99.90;;;;;;5028734;28;20426;-63
2022/03/30 11:31:17;;;;;;;15.40;7.73;;;9.70;99.90;;;;;;5032880;28;20165;-62
2022/03/30 11:33:43;;;;;;;18.40;8.10;;;9.70;99.90;;;;;;5031698;28;20480;-62
2022/03/30 11:36:09;;;;;;;17.80;7.83;;;9.80;99.90;;;;;;5028101;28;20488;-63
2022/03/30 11:38:41;;;;;;;18.00;6.93;;;9.90;99.90;;;;;;5035131;28;20425;-63
2022/03/30 11:41:09;;;;;;;14.37;7.23;;;10.10;99.90;;;;;;5032509;28;20812;-62
2022/03/30 11:46:30;;;;;;;15.90;8.00;;;10.30;99.90;;;;;;5033036;28;20429;-63
2022/03/30 11:49:06;;;;;;;15.87;7.50;;;10.30;99.90;;;;;;5028153;28;21231;-63
2022/03/30 11:51:32;;;;;;;12.20;7.57;;;10.30;99.90;;;;;;5036546;28;20504;-64
2022/03/30 11:54:18;;;;;;;14.67;7.30;;;10.30;99.90;;;;;;5029474;28;20985;-64
2022/03/30 11:56:44;;;;;;;11.47;7.43;;;10.40;99.90;;;;;;5017395;28;20538;-64
2022/03/30 11:59:10;;;;;;;17.50;7.63;;;10.40;99.90;;;;;;5019564;28;20422;-65
2022/03/30 12:01:37;;;;;;;19.40;7.10;;;10.50;99.90;;;;;;5021521;28;20922;-63
2022/03/30 12:04:04;;;;;;;12.23;7.67;;;10.60;99.90;;;;;;5017029;28;20454;-63
2022/03/30 12:06:30;;;;;;;15.57;8.03;;;10.90;99.90;;;;;;5016435;28;20431;-63
2022/03/30 12:08:58;;;;;;;16.60;7.37;;;11.20;99.90;;;;;;5019837;28;20434;-62
2022/03/30 12:11:25;;;;;;;13.00;6.83;;;11.30;97.60;;;;;;5022639;28;20176;-63
2022/03/30 12:13:52;;;;;;;16.77;6.90;;;11.30;95.30;;;;;;5015497;28;20463;-63
2022/03/30 12:16:19;;;;;;;17.70;7.93;;;11.20;94.20;;;;;;5021170;28;20483;-63
2022/03/30 12:18:45;;;;;;;19.20;7.57;;;11.10;94.90;;;;;;5023859;28;20416;-63
2022/03/30 12:21:22;;;;;;;16.17;7.13;;;11.10;95.60;;;;;;5013108;28;20426;-62
2022/03/30 12:24:04;;;;;;;19.03;7.37;;;11.00;96.90;;;;;;5020007;28;20481;-62
2022/03/30 12:26:31;;;;;;;17.33;7.50;;;11.00;95.80;;;;;;5024744;28;20436;-63
2022/03/30 12:29:11;;;;;;;15.17;7.07;;;11.20;96.40;;;;;;5025886;28;20469;-62
2022/03/30 12:31:57;;;;;;;14.90;7.10;;;11.50;96.10;;;;;;5023267;28;20843;-63
2022/03/30 12:34:23;;;;;;;23.53;8.10;;;11.90;90.10;;;;;;5021002;28;20497;-63
2022/03/30 12:37:01;;;;;;;20.80;8.70;;;12.20;86.20;;;;;;5022061;28;20434;-63
2022/03/30 12:39:38;;;;;;;18.53;7.10;;;12.60;80.00;;;;;;5014266;28;20445;-63
2022/03/30 12:42:04;;;;;;;11.33;8.07;;;12.80;73.60;;;;;;5020519;28;20493;-64
2022/03/30 12:44:32;;;;;;;21.00;8.23;;;13.00;72.70;;;;;;5010625;28;20463;-63
2022/03/30 12:47:01;;;;;;;17.63;8.50;;;13.20;75.30;;;;;;5018797;28;20207;-63
2022/03/30 12:49:54;;;;;;;14.17;8.20;;;13.30;72.80;;;;;;5018534;28;20522;-63
2022/03/30 12:52:21;;;;;;;22.73;8.83;;;13.40;71.70;;;;;;5019152;28;20526;-64
2022/03/30 12:54:48;;;;;;;16.83;8.33;;;13.40;71.60;;;;;;5020324;28;20462;-63
2022/03/30 12:57:26;;;;;;;18.53;7.80;;;13.40;70.30;;;;;;5021245;28;20925;-64
2022/03/30 12:59:52;;;;;;;17.57;8.27;;;13.40;71.40;;;;;;5016342;28;20931;-64